createdAt,value
2023-01-30T01:17:26.185Z,38.97
2023-01-30T01:19:58.568Z,40.08
2023-01-30T01:22:30.742Z,39.85
2023-01-30T01:25:32.485Z,39.78
2023-01-30T01:28:04.945Z,41.63
2023-01-30T01:30:40.060Z,37.00
2023-01-30T01:33:12.166Z,40.35
2023-01-30T01:35:44.239Z,39.05
2023-01-30T01:38:31.860Z,37.83
2023-01-30T01:41:06.557Z,36.53
2023-01-30T01:44:07.187Z,38.60
2023-01-30T01:46:56.272Z,38.03
2023-01-30T01:49:36.004Z,36.25
2023-01-30T01:52:13.892Z,35.83
2023-01-30T01:55:38.322Z,36.35
2023-01-30T01:58:39.782Z,34.60
2023-01-30T02:01:12.256Z,37.55
2023-01-30T02:03:51.155Z,36.53
2023-01-30T02:06:23.954Z,38.08
2023-01-30T02:09:03.078Z,37.33
2023-01-30T02:11:47.730Z,37.53
2023-01-30T02:14:22.046Z,37.90
2023-01-30T02:17:59.714Z,36.47
2023-01-30T02:20:42.259Z,36.40
2023-01-30T02:23:39.309Z,37.95
2023-01-30T02:26:36.770Z,37.90
2023-01-30T02:29:45.318Z,35.55
2023-01-30T02:32:50.186Z,34.80
2023-01-30T02:36:02.981Z,34.88
2023-01-30T02:39:02.164Z,34.88
2023-01-30T02:42:25.666Z,33.92
2023-01-30T02:45:49.293Z,33.90
2023-01-30T02:48:42.908Z,32.92
2023-01-30T02:51:22.429Z,31.23
2023-01-30T02:54:35.169Z,32.22
2023-01-30T02:57:23.156Z,28.27
2023-01-30T03:00:02.367Z,29.75
2023-01-30T03:03:07.138Z,29.70
2023-01-30T03:06:03.483Z,28.55
2023-01-30T03:08:56.583Z,27.50
2023-01-30T03:11:43.061Z,27.80
2023-01-30T03:14:31.424Z,26.23
2023-01-30T03:17:29.844Z,26.75
2023-01-30T03:20:11.960Z,27.05
2023-01-30T03:22:44.287Z,25.83
2023-01-30T03:25:23.711Z,25.58
2023-01-30T03:27:56.970Z,25.43
2023-01-30T03:30:29.119Z,25.20
2023-01-30T03:33:01.952Z,24.83
2023-01-30T03:35:36.057Z,23.33
2023-01-30T03:38:08.254Z,23.48
2023-01-30T03:40:40.484Z,23.67
2023-01-30T03:43:12.601Z,22.15
2023-01-30T03:45:45.003Z,21.83
2023-01-30T03:48:17.183Z,23.35
2023-01-30T03:50:49.371Z,22.35
2023-01-30T03:53:30.586Z,22.10
2023-01-30T03:56:02.782Z,19.73
2023-01-30T03:58:35.152Z,21.88
2023-01-30T04:01:08.744Z,19.30
2023-01-30T04:03:40.749Z,19.63
2023-01-30T04:06:12.900Z,18.45
2023-01-30T04:08:45.131Z,18.33
2023-01-30T04:11:17.179Z,17.60
2023-01-30T04:13:49.497Z,18.05
2023-01-30T04:16:27.191Z,17.20
2023-01-30T04:18:59.584Z,16.52
2023-01-30T04:23:01.643Z,15.75
2023-01-30T04:25:45.394Z,14.93
2023-01-30T04:28:18.091Z,14.60
2023-01-30T04:30:50.378Z,14.23
2023-01-30T04:33:22.725Z,11.98
2023-01-30T04:36:32.258Z,10.35
2023-01-30T04:39:05.135Z,6.47
2023-01-30T04:41:37.260Z,5.60
2023-01-30T04:44:09.662Z,4.35
2023-01-30T04:46:44.101Z,3.13
2023-01-30T04:49:16.438Z,2.72
2023-01-30T04:51:51.461Z,2.88
2023-01-30T04:54:23.630Z,2.10
2023-01-30T04:56:57.378Z,2.63
2023-01-30T04:59:29.461Z,2.38
2023-01-30T05:02:04.296Z,2.38
2023-01-30T05:04:36.603Z,3.15
2023-01-30T05:07:09.177Z,2.88
2023-01-30T05:09:41.618Z,2.75
2023-01-30T05:12:13.987Z,2.85
2023-01-30T05:14:46.971Z,2.50
2023-01-30T05:17:19.004Z,2.42
2023-01-30T05:19:51.388Z,2.90
2023-01-30T05:22:23.765Z,3.60
2023-01-30T05:24:55.948Z,3.60
2023-01-30T05:27:31.362Z,4.25
2023-01-30T05:30:04.574Z,3.80
2023-01-30T05:32:38.871Z,3.35
2023-01-30T05:35:11.246Z,3.92
2023-01-30T05:37:43.370Z,6.07
2023-01-30T05:40:15.770Z,4.78
2023-01-30T05:42:47.932Z,6.10
2023-01-30T05:45:20.518Z,6.78
2023-01-30T05:47:54.865Z,5.28
2023-01-30T05:50:28.943Z,4.82
2023-01-30T05:53:01.058Z,5.80
2023-01-30T05:55:33.381Z,6.40
2023-01-30T05:58:05.552Z,5.15
2023-01-30T06:00:37.927Z,4.93
2023-01-30T06:03:12.960Z,5.70
2023-01-30T06:05:47.954Z,4.88
2023-01-30T06:08:20.077Z,5.72
2023-01-30T06:10:55.105Z,4.85
2023-01-30T06:13:27.501Z,5.93
2023-01-30T06:16:00.173Z,6.63
2023-01-30T06:18:32.795Z,6.18
2023-01-30T06:21:06.028Z,6.55
2023-01-30T06:23:39.052Z,6.78
2023-01-30T06:26:11.313Z,7.38
2023-01-30T06:28:45.474Z,5.82
2023-01-30T06:31:18.565Z,6.10
2023-01-30T06:33:50.600Z,5.75
2023-01-30T06:36:22.750Z,7.10
2023-01-30T06:38:54.976Z,6.13
2023-01-30T06:41:27.028Z,9.70
2023-01-30T06:43:59.127Z,6.25
2023-01-30T06:46:31.427Z,6.35
2023-01-30T06:49:03.515Z,6.88
2023-01-30T06:51:35.536Z,5.80
2023-01-30T06:54:07.630Z,5.78
2023-01-30T06:56:39.762Z,6.90
2023-01-30T06:59:12.038Z,7.95
2023-01-30T07:01:44.566Z,5.90
2023-01-30T07:04:19.369Z,7.72
2023-01-30T07:06:51.636Z,6.07
2023-01-30T07:09:23.866Z,6.55
2023-01-30T07:12:00.724Z,6.20
2023-01-30T07:14:33.178Z,5.13
2023-01-30T07:17:33.203Z,5.72
2023-01-30T07:20:05.967Z,6.95
2023-01-30T07:22:43.065Z,4.90
2023-01-30T07:25:15.463Z,5.75
2023-01-30T07:27:54.955Z,4.50
2023-01-30T07:30:31.145Z,5.78
2023-01-30T07:42:40.853Z,5.72
2023-01-30T07:46:12.069Z,5.68
2023-01-30T08:09:13.067Z,5.25
2023-01-30T08:11:46.905Z,5.43
2023-01-30T08:14:35.417Z,5.50
2023-01-30T08:17:07.873Z,5.70
2023-01-30T08:19:40.321Z,6.40
2023-01-30T08:22:12.616Z,4.72
2023-01-30T08:24:45.055Z,4.38
2023-01-30T08:27:17.626Z,5.38
2023-01-30T08:29:49.708Z,4.88
2023-01-30T08:32:21.954Z,6.80
2023-01-30T08:34:54.266Z,5.25
2023-01-30T08:37:26.340Z,5.65
2023-01-30T08:39:58.447Z,5.10
2023-01-30T08:42:30.805Z,5.60
2023-01-30T08:45:03.230Z,5.88
2023-01-30T08:47:35.730Z,4.28
2023-01-30T08:50:08.818Z,5.93
2023-01-30T08:52:40.890Z,5.90
2023-01-30T08:55:12.982Z,5.25
2023-01-30T08:57:45.424Z,4.20
2023-01-30T09:00:18.559Z,5.13
2023-01-30T09:02:57.642Z,5.75
2023-01-30T09:05:30.323Z,5.07
2023-01-30T09:08:03.084Z,5.40
2023-01-30T09:10:35.511Z,5.70
2023-01-30T09:13:10.257Z,5.63
2023-01-30T09:15:44.093Z,6.07
2023-01-30T09:18:17.276Z,7.93
2023-01-30T09:20:49.381Z,5.53
2023-01-30T09:23:22.628Z,4.95
2023-01-30T09:25:55.007Z,5.50
2023-01-30T09:28:27.606Z,5.43
2023-01-30T09:31:01.577Z,6.05
2023-01-30T09:33:33.804Z,6.15
2023-01-30T09:36:06.586Z,4.97
2023-01-30T09:38:38.537Z,5.45
2023-01-30T09:41:48.137Z,6.70
2023-01-30T09:45:19.363Z,4.97
2023-01-30T09:48:12.308Z,5.88
2023-01-30T09:51:57.988Z,5.32
2023-01-30T09:54:36.883Z,3.95
2023-01-30T09:57:21.679Z,3.53
2023-01-30T10:00:12.768Z,4.93
2023-01-30T10:03:11.229Z,3.47
2023-01-30T10:06:07.370Z,5.07
2023-01-30T10:08:52.298Z,6.53
2023-01-30T10:11:50.040Z,4.82
2023-01-30T10:14:40.184Z,6.07
2023-01-30T10:17:32.969Z,5.05
2023-01-30T10:20:40.846Z,4.03
2023-01-30T10:23:39.487Z,4.63
2023-01-30T10:26:15.423Z,4.45
2023-01-30T10:29:25.621Z,5.25
2023-01-30T10:32:12.880Z,5.93
2023-01-30T10:34:56.899Z,5.00
2023-01-30T10:37:42.405Z,4.20
2023-01-30T10:40:41.964Z,4.85
2023-01-30T10:43:30.819Z,4.85
2023-01-30T10:46:31.748Z,4.50
2023-01-30T10:49:21.520Z,5.70
2023-01-30T10:52:04.177Z,4.75
2023-01-30T10:55:37.963Z,4.70
2023-01-30T10:58:28.998Z,5.28
2023-01-30T11:01:24.184Z,4.75
2023-01-30T11:04:27.102Z,3.67
2023-01-30T11:07:02.254Z,3.33
2023-01-30T11:09:46.595Z,4.45
2023-01-30T11:12:18.679Z,3.67
2023-01-30T11:14:54.780Z,4.05
2023-01-30T11:17:37.179Z,3.70
2023-01-30T11:20:21.015Z,3.95
2023-01-30T11:23:11.734Z,5.32
2023-01-30T11:26:10.517Z,4.57
2023-01-30T11:28:45.604Z,5.10
2023-01-30T11:31:40.348Z,4.65
2023-01-30T11:34:17.760Z,5.45
2023-01-30T11:36:50.881Z,5.10
2023-01-30T11:39:28.916Z,4.53
2023-01-30T11:42:04.823Z,4.70
2023-01-30T11:44:38.596Z,6.18
2023-01-30T11:47:25.428Z,5.50
2023-01-30T11:50:12.385Z,5.32
2023-01-30T11:52:54.352Z,5.07
2023-01-30T11:55:26.819Z,5.60
2023-01-30T11:58:03.053Z,6.03
2023-01-30T12:00:48.198Z,4.05
2023-01-30T12:03:25.953Z,4.75
2023-01-30T12:05:59.492Z,7.00
2023-01-30T12:08:42.374Z,5.45
2023-01-30T12:11:47.138Z,5.43
2023-01-30T12:14:45.890Z,4.72
2023-01-30T12:17:29.793Z,4.60
2023-01-30T12:20:19.973Z,4.60
2023-01-30T12:26:41.430Z,5.30
2023-01-30T12:30:10.888Z,5.00
2023-01-30T12:32:42.926Z,5.55
2023-01-30T12:35:18.871Z,5.15
2023-01-30T12:38:11.816Z,4.85
2023-01-30T12:41:36.174Z,4.97
2023-01-30T12:44:38.435Z,5.72
2023-01-30T12:48:14.307Z,4.80
2023-01-30T12:51:23.173Z,4.47
2023-01-30T12:54:19.662Z,4.65
2023-01-30T12:57:43.729Z,5.05
2023-01-30T13:00:27.723Z,4.45
2023-01-30T13:03:19.402Z,4.43
2023-01-30T13:06:12.472Z,4.75
2023-01-30T13:09:32.006Z,5.18
2023-01-30T13:12:04.036Z,4.37
2023-01-30T13:15:14.221Z,4.82
2023-01-30T13:18:06.168Z,5.13
2023-01-30T13:20:49.866Z,3.88
2023-01-30T13:23:39.797Z,4.60
2023-01-30T13:27:14.607Z,3.28
2023-01-30T13:29:49.126Z,3.70
2023-01-30T13:32:33.669Z,2.80
2023-01-30T13:35:16.975Z,4.15
2023-01-30T13:37:51.221Z,4.07
2023-01-30T13:40:28.986Z,3.63
2023-01-30T13:46:20.537Z,3.67
2023-01-30T13:49:26.053Z,4.32
2023-01-30T13:52:09.881Z,4.18
2023-01-30T13:55:06.279Z,3.85
2023-01-30T13:57:56.729Z,3.92
2023-01-30T14:00:49.264Z,4.72
2023-01-30T14:03:31.973Z,4.22
2023-01-30T14:06:14.513Z,4.32
2023-01-30T14:08:47.148Z,4.93
2023-01-30T14:11:32.984Z,6.10
2023-01-30T14:14:29.311Z,3.92
2023-01-30T14:17:19.677Z,4.20
2023-01-30T14:23:03.767Z,3.97
2023-01-30T14:25:47.466Z,4.05
2023-01-30T14:28:19.387Z,5.30
2023-01-30T14:30:59.070Z,4.70
2023-01-30T14:33:36.280Z,5.05
2023-01-30T14:36:34.760Z,5.28
2023-01-30T14:39:55.760Z,5.03
2023-01-30T14:42:30.454Z,5.45
2023-01-30T14:45:17.237Z,5.38
2023-01-30T14:48:27.786Z,4.45
2023-01-30T14:51:24.696Z,4.22
2023-01-30T14:54:15.501Z,4.55
2023-01-30T14:57:46.368Z,6.18
2023-01-30T15:00:22.454Z,6.72
2023-01-30T15:03:07.872Z,5.65
2023-01-30T15:05:44.793Z,5.30
2023-01-30T15:08:24.249Z,4.63
2023-01-30T15:11:16.966Z,4.85
2023-01-30T15:14:00.901Z,6.38
2023-01-30T15:16:57.758Z,6.18
2023-01-30T15:20:13.024Z,4.90
2023-01-30T15:23:15.931Z,4.05
2023-01-30T15:26:31.081Z,3.30
2023-01-30T15:29:28.726Z,3.40
2023-01-30T15:32:13.958Z,4.90
2023-01-30T15:35:19.030Z,6.18
2023-01-30T15:37:57.353Z,5.38
2023-01-30T15:40:30.247Z,5.45
2023-01-30T15:43:19.447Z,4.80
2023-01-30T15:46:00.639Z,5.97
2023-01-30T15:49:11.348Z,5.35
2023-01-30T15:51:43.407Z,5.35
2023-01-30T15:54:22.996Z,5.95
2023-01-30T15:56:58.398Z,4.38
2023-01-30T15:59:38.459Z,6.45
2023-01-30T16:02:21.392Z,6.80
2023-01-30T16:05:17.286Z,5.30
2023-01-30T16:07:52.232Z,7.03
2023-01-30T16:10:30.340Z,6.03
2023-01-30T16:13:04.465Z,5.05
2023-01-30T16:16:10.588Z,4.68
2023-01-30T16:18:57.298Z,4.35
2023-01-30T18:20:22.697Z,4.20
2023-01-30T18:22:54.763Z,3.85
2023-01-30T18:25:26.916Z,6.40
2023-01-30T18:27:58.952Z,4.95
2023-01-30T18:30:30.995Z,4.85
2023-01-30T18:33:04.867Z,4.93
2023-01-30T18:35:38.591Z,5.03
2023-01-30T18:38:10.615Z,4.63
2023-01-30T18:40:42.578Z,6.80
2023-01-30T18:43:19.225Z,5.53
2023-01-30T18:46:01.525Z,5.20
2023-01-30T18:48:34.162Z,5.18
2023-01-30T18:51:19.450Z,6.57
2023-01-30T18:53:53.727Z,5.95
2023-01-30T18:56:31.923Z,5.25
2023-01-30T18:59:06.179Z,5.88
2023-01-30T19:01:42.506Z,5.93
2023-01-30T19:04:14.632Z,5.78
2023-01-30T19:06:46.636Z,5.90
2023-01-30T19:09:19.146Z,6.03
2023-01-30T19:12:09.343Z,6.70
2023-01-30T19:14:41.435Z,5.90
2023-01-30T19:17:15.147Z,5.57
2023-01-30T19:19:47.256Z,4.63
2023-01-30T19:22:19.280Z,3.85
2023-01-30T19:24:51.299Z,4.50
2023-01-30T19:27:23.580Z,4.97
2023-01-30T19:29:56.158Z,4.00
2023-01-30T19:32:28.118Z,4.13
2023-01-30T19:35:00.111Z,4.03
2023-01-30T19:37:32.165Z,4.05
2023-01-30T19:40:09.047Z,4.38
2023-01-30T19:42:44.415Z,4.78
2023-01-30T19:45:16.788Z,4.20
2023-01-30T19:47:48.740Z,5.28
2023-01-30T19:50:21.065Z,3.83
2023-01-30T19:52:53.819Z,3.65
2023-01-30T19:55:26.160Z,5.32
2023-01-30T19:57:58.367Z,4.95
2023-01-30T20:00:30.612Z,4.45
2023-01-30T20:03:02.612Z,4.28
2023-01-30T20:05:34.693Z,3.00
2023-01-30T20:08:06.684Z,4.22
2023-01-30T20:10:38.667Z,4.45
2023-01-30T20:13:14.837Z,4.20
2023-01-30T20:15:46.876Z,4.50
2023-01-30T20:18:18.847Z,3.83
2023-01-30T20:20:50.935Z,4.18
2023-01-30T20:23:23.311Z,6.28
2023-01-30T20:25:55.320Z,4.30
2023-01-30T20:28:28.263Z,3.88
2023-01-30T20:31:01.621Z,5.70
2023-01-30T20:33:33.590Z,4.60
2023-01-30T20:36:09.251Z,5.00
2023-01-30T20:38:43.812Z,5.65
2023-01-30T20:41:17.887Z,4.25
2023-01-30T20:43:53.804Z,5.22
2023-01-30T20:46:31.804Z,4.30
2023-01-30T20:49:04.261Z,4.50
2023-01-30T20:51:38.696Z,4.82
2023-01-30T20:54:13.971Z,5.00
2023-01-30T20:56:52.295Z,4.68
2023-01-30T20:59:24.986Z,5.13
2023-01-30T21:01:57.188Z,4.65
2023-01-30T21:04:29.317Z,5.53
2023-01-30T21:07:01.728Z,5.13
2023-01-30T21:09:34.768Z,5.60
2023-01-30T21:12:07.205Z,4.75
2023-01-30T21:14:39.462Z,5.03
2023-01-30T21:17:11.492Z,4.75
2023-01-30T21:19:43.713Z,5.03
2023-01-30T21:22:15.809Z,5.20
2023-01-30T21:24:47.857Z,4.65
2023-01-30T21:27:21.264Z,5.65
2023-01-30T21:29:53.344Z,4.82
2023-01-30T21:32:25.318Z,5.63
2023-01-30T21:34:57.279Z,6.80
2023-01-30T21:37:47.601Z,7.32
2023-01-30T21:43:16.345Z,4.68
2023-01-30T21:45:48.400Z,4.65
2023-01-30T21:48:20.573Z,6.55
2023-01-30T21:50:52.663Z,4.90
2023-01-30T21:53:24.770Z,4.57
2023-01-30T21:55:56.940Z,5.93
2023-01-30T21:58:32.424Z,4.53
2023-01-30T22:01:08.394Z,4.72
2023-01-30T22:03:40.531Z,4.38
2023-01-30T22:06:13.075Z,4.07
2023-01-30T22:08:45.332Z,4.60
2023-01-30T22:11:21.093Z,4.40
2023-01-30T22:13:53.601Z,4.78
2023-01-30T22:16:28.998Z,3.58
2023-01-30T22:19:05.608Z,4.32
2023-01-30T22:21:40.246Z,5.68
2023-01-30T22:24:12.438Z,4.90
2023-01-30T22:26:44.546Z,5.20
2023-01-30T22:29:18.477Z,4.90
2023-01-30T22:31:50.510Z,5.20
2023-01-30T22:34:22.517Z,6.18
2023-01-30T22:36:54.802Z,4.72
2023-01-30T22:39:26.800Z,5.70
2023-01-30T22:41:58.769Z,6.43
2023-01-30T22:44:30.760Z,4.88
2023-01-30T22:47:02.716Z,5.03
2023-01-30T22:49:34.687Z,5.35
2023-01-30T22:52:06.692Z,5.00
2023-01-30T22:54:38.658Z,4.47
2023-01-30T22:57:10.584Z,5.10
2023-01-30T22:59:42.584Z,3.92
2023-01-30T23:02:14.552Z,3.60
2023-01-30T23:04:49.247Z,4.82
2023-01-30T23:07:22.290Z,3.88
2023-01-30T23:09:54.327Z,4.75
2023-01-30T23:12:44.990Z,4.97
2023-01-30T23:15:17.379Z,5.35
2023-01-30T23:18:10.905Z,4.30
2023-01-30T23:20:42.873Z,4.55
2023-01-30T23:23:14.802Z,4.22
2023-01-30T23:25:46.881Z,4.47
2023-01-30T23:28:19.006Z,4.35
2023-01-30T23:30:50.964Z,4.85
2023-01-30T23:33:25.537Z,4.53
2023-01-30T23:36:02.885Z,4.72
2023-01-30T23:38:35.477Z,4.85
2023-01-30T23:41:18.762Z,4.38
2023-01-30T23:43:51.746Z,3.95
2023-01-30T23:46:30.041Z,4.57
2023-01-30T23:49:12.286Z,4.43
2023-01-30T23:51:45.320Z,4.60
2023-01-30T23:54:17.322Z,4.40
2023-01-30T23:56:49.477Z,3.92
2023-01-30T23:59:21.557Z,3.85
